createdAt,value
2018-09-21T00:00:46.668Z,51.81
2018-09-21T00:03:15.255Z,51.93
2018-09-21T00:05:43.988Z,52.08
2018-09-21T00:08:12.592Z,52.48
2018-09-21T00:10:41.163Z,52.59
2018-09-21T00:13:09.728Z,51.88
2018-09-21T00:15:38.420Z,52.56
2018-09-21T00:18:07.081Z,52.26
2018-09-21T00:20:35.655Z,52.27
2018-09-21T00:23:04.611Z,52.72
2018-09-21T00:25:33.192Z,52.71
2018-09-21T00:28:02.232Z,53.06
2018-09-21T00:30:30.956Z,53.34
2018-09-21T00:32:59.831Z,53.19
2018-09-21T00:35:28.432Z,53.70
2018-09-21T00:37:57.116Z,53.24
2018-09-21T00:40:25.724Z,53.50
2018-09-21T00:42:54.295Z,54.25
2018-09-21T00:45:23.436Z,54.04
2018-09-21T00:47:52.008Z,53.91
2018-09-21T00:50:20.603Z,54.09
2018-09-21T00:52:49.210Z,53.62
2018-09-21T00:55:17.782Z,54.00
2018-09-21T00:57:46.360Z,53.06
2018-09-21T01:00:15.006Z,53.58
2018-09-21T01:02:43.619Z,53.06
2018-09-21T01:05:12.204Z,53.01
2018-09-21T01:07:40.976Z,53.55
2018-09-21T01:10:09.559Z,53.71
2018-09-21T01:12:38.120Z,53.04
2018-09-21T01:15:06.719Z,53.68
2018-09-21T01:17:35.684Z,53.11
2018-09-21T01:20:04.303Z,53.37
2018-09-21T01:22:33.572Z,53.38
2018-09-21T01:25:02.156Z,52.31
2018-09-21T01:27:30.772Z,53.01
2018-09-21T01:29:59.944Z,51.95
2018-09-21T01:32:28.540Z,51.43
2018-09-21T01:34:57.593Z,51.13
2018-09-21T01:37:26.284Z,51.50
2018-09-21T01:39:54.933Z,51.04
2018-09-21T01:42:23.500Z,50.61
2018-09-21T01:44:52.405Z,50.32
2018-09-21T01:47:21.646Z,50.31
2018-09-21T01:49:50.652Z,49.94
2018-09-21T01:52:19.684Z,49.72
2018-09-21T01:54:48.572Z,49.97
2018-09-21T01:57:17.630Z,50.25
2018-09-21T01:59:46.356Z,50.63
2018-09-21T02:02:15.177Z,51.21
2018-09-21T02:04:43.756Z,51.40
2018-09-21T02:07:13.031Z,51.47
2018-09-21T02:09:41.734Z,51.89
2018-09-21T02:12:10.379Z,51.85
2018-09-21T02:14:39.032Z,52.02
2018-09-21T02:17:07.656Z,52.60
2018-09-21T02:19:36.288Z,51.96
2018-09-21T02:22:05.013Z,52.25
2018-09-21T02:24:33.616Z,51.85
2018-09-21T02:27:02.212Z,51.66
2018-09-21T02:29:30.819Z,52.18
2018-09-21T02:31:59.823Z,51.83
2018-09-21T02:34:28.436Z,51.52
2018-09-21T02:36:57.297Z,52.08
2018-09-21T02:39:26.880Z,52.22
2018-09-21T02:41:55.443Z,51.60
2018-09-21T02:44:24.663Z,51.63
2018-09-21T02:46:53.232Z,52.53
2018-09-21T02:49:21.864Z,52.07
2018-09-21T02:51:50.604Z,52.26
2018-09-21T02:54:19.173Z,52.26
2018-09-21T02:56:47.809Z,52.81
2018-09-21T02:59:16.416Z,52.47
2018-09-21T03:01:44.989Z,52.82
2018-09-21T03:04:13.575Z,52.94
2018-09-21T03:06:42.643Z,53.17
2018-09-21T03:09:11.811Z,53.24
2018-09-21T03:11:40.386Z,52.65
2018-09-21T03:14:09.080Z,52.55
2018-09-21T03:16:37.676Z,52.70
2018-09-21T03:19:06.291Z,52.71
2018-09-21T03:21:34.916Z,53.24
2018-09-21T03:24:03.498Z,53.29
2018-09-21T03:26:32.744Z,52.88
2018-09-21T03:29:01.380Z,53.07
2018-09-21T03:31:29.992Z,52.97
2018-09-21T03:33:58.620Z,52.49
2018-09-21T03:36:27.508Z,52.84
2018-09-21T03:38:56.081Z,52.54
2018-09-21T03:41:25.075Z,52.20
2018-09-21T03:43:54.324Z,52.26
2018-09-21T03:46:23.300Z,52.36
2018-09-21T03:48:51.952Z,52.85
2018-09-21T03:51:20.632Z,52.29
2018-09-21T03:53:49.992Z,52.73
2018-09-21T03:56:18.585Z,52.48
2018-09-21T03:58:47.312Z,53.30
2018-09-21T04:01:15.962Z,52.81
2018-09-21T04:03:44.521Z,53.17
2018-09-21T04:06:13.512Z,52.90
2018-09-21T04:08:42.102Z,53.34
2018-09-21T04:11:10.683Z,52.85
2018-09-21T04:13:39.832Z,53.42
2018-09-21T04:16:08.895Z,53.50
2018-09-21T04:18:37.888Z,53.09
2018-09-21T04:21:07.227Z,53.38
2018-09-21T04:23:35.867Z,53.42
2018-09-21T04:26:04.476Z,53.76
2018-09-21T04:28:33.315Z,53.31
2018-09-21T04:31:01.893Z,53.09
2018-09-21T04:33:30.787Z,53.67
2018-09-21T04:35:59.950Z,53.50
2018-09-21T04:38:29.147Z,53.77
2018-09-21T04:40:57.781Z,53.44
2018-09-21T04:43:26.468Z,53.24
2018-09-21T04:45:55.132Z,53.89
2018-09-21T04:48:23.638Z,54.07
2018-09-21T04:50:52.288Z,53.41
2018-09-21T04:53:22.238Z,54.08
2018-09-21T04:55:51.203Z,53.55
2018-09-21T04:58:20.356Z,53.85
2018-09-21T05:00:49.027Z,54.44
2018-09-21T05:03:17.622Z,53.76
2018-09-21T05:05:48.272Z,53.77
2018-09-21T05:08:17.087Z,54.17
2018-09-21T05:10:45.928Z,53.25
2018-09-21T05:13:14.942Z,53.25
2018-09-21T05:15:43.520Z,54.05
2018-09-21T05:18:12.115Z,53.18
2018-09-21T05:20:40.860Z,53.82
2018-09-21T05:23:09.872Z,53.40
2018-09-21T05:25:38.464Z,53.47
2018-09-21T05:28:07.648Z,53.08
2018-09-21T05:30:36.215Z,53.71
2018-09-21T05:33:04.789Z,53.50
2018-09-21T05:35:33.836Z,53.27
2018-09-21T05:38:02.439Z,52.94
2018-09-21T05:40:31.008Z,52.67
2018-09-21T05:42:59.623Z,53.39
2018-09-21T05:45:28.679Z,53.07
2018-09-21T05:47:57.720Z,52.16
2018-09-21T05:50:26.332Z,51.80
2018-09-21T05:52:54.916Z,51.50
2018-09-21T05:55:23.504Z,51.78
2018-09-21T05:57:52.204Z,51.44
2018-09-21T06:00:20.808Z,50.64
2018-09-21T06:02:49.755Z,50.20
2018-09-21T06:05:18.404Z,50.46
2018-09-21T06:07:47.483Z,49.27
2018-09-21T06:10:16.011Z,49.31
2018-09-21T06:12:44.656Z,49.54
2018-09-21T06:15:13.243Z,49.30
2018-09-21T06:17:41.822Z,49.13
2018-09-21T06:20:12.971Z,49.03
2018-09-21T06:22:45.102Z,48.46
2018-09-21T06:25:08.171Z,49.07
2018-09-21T06:27:36.918Z,47.78
2018-09-21T06:30:05.878Z,47.84
2018-09-21T06:32:34.477Z,47.26
2018-09-21T06:35:03.144Z,46.95
2018-09-21T06:37:31.732Z,46.96
2018-09-21T06:40:00.756Z,46.75
2018-09-21T06:42:29.904Z,46.00
2018-09-21T06:44:59.076Z,45.29
2018-09-21T06:47:27.673Z,45.23
2018-09-21T06:49:57.413Z,44.48
2018-09-21T06:52:25.977Z,44.19
2018-09-21T06:54:54.588Z,44.21
2018-09-21T06:57:23.215Z,44.26
2018-09-21T06:59:51.811Z,44.66
2018-09-21T07:02:20.414Z,44.94
2018-09-21T07:04:49.024Z,45.73
2018-09-21T07:07:18.111Z,46.08
2018-09-21T07:09:46.700Z,45.89
2018-09-21T07:12:15.357Z,44.95
2018-09-21T07:14:43.961Z,43.94
2018-09-21T07:17:13.670Z,42.92
2018-09-21T07:19:42.316Z,41.08
2018-09-21T07:22:10.902Z,40.47
2018-09-21T07:24:39.482Z,39.69
2018-09-21T07:27:08.173Z,39.20
2018-09-21T07:29:36.769Z,38.36
2018-09-21T07:32:05.377Z,37.91
2018-09-21T07:34:34.076Z,37.79
2018-09-21T07:37:02.657Z,37.58
2018-09-21T07:39:31.460Z,37.26
2018-09-21T07:42:00.278Z,37.81
2018-09-21T07:44:28.991Z,38.64
2018-09-21T07:46:57.907Z,39.47
2018-09-21T07:49:26.620Z,39.20
2018-09-21T07:51:55.207Z,38.81
2018-09-21T07:54:24.207Z,38.93
2018-09-21T07:56:52.777Z,38.74
2018-09-21T07:59:21.368Z,37.88
2018-09-21T08:01:49.968Z,37.61
2018-09-21T08:04:18.583Z,38.77
2018-09-21T08:06:47.168Z,39.48
2018-09-21T08:09:15.751Z,39.11
2018-09-21T08:11:44.431Z,39.81
2018-09-21T08:14:13.360Z,39.29
2018-09-21T08:16:41.952Z,39.80
2018-09-21T08:19:11.117Z,39.58
2018-09-21T08:21:39.701Z,38.96
2018-09-21T08:24:08.268Z,39.31
2018-09-21T08:26:37.636Z,39.72
2018-09-21T08:29:06.211Z,39.86
2018-09-21T08:31:34.904Z,38.78
2018-09-21T08:34:03.712Z,39.29
2018-09-21T08:36:32.331Z,39.06
2018-09-21T08:39:00.935Z,38.70
2018-09-21T08:41:29.548Z,38.72
2018-09-21T08:43:58.116Z,37.39
2018-09-21T08:46:26.733Z,35.92
2018-09-21T08:48:55.448Z,34.40
2018-09-21T08:51:24.024Z,33.07
2018-09-21T08:53:52.642Z,32.34
2018-09-21T08:56:21.796Z,32.40
2018-09-21T08:58:50.489Z,32.76
2018-09-21T09:01:19.125Z,33.67
2018-09-21T09:03:48.251Z,34.26
2018-09-21T09:06:16.832Z,33.96
2018-09-21T09:08:45.895Z,34.76
2018-09-21T09:11:14.544Z,34.37
2018-09-21T09:13:43.117Z,34.45
2018-09-21T09:16:12.724Z,34.10
2018-09-21T09:18:41.603Z,34.61
2018-09-21T09:21:10.196Z,34.46
2018-09-21T09:23:38.812Z,34.26
2018-09-21T09:26:07.455Z,33.29
2018-09-21T09:28:36.021Z,33.84
2018-09-21T09:31:05.507Z,34.01
2018-09-21T09:33:34.187Z,32.83
2018-09-21T09:36:02.943Z,31.78
2018-09-21T09:38:31.528Z,29.80
2018-09-21T09:41:00.668Z,29.34
2018-09-21T09:43:29.248Z,28.96
2018-09-21T09:45:57.823Z,29.64
2018-09-21T09:48:26.529Z,30.62
2018-09-21T09:50:55.102Z,31.17
2018-09-21T09:53:23.707Z,31.35
2018-09-21T09:55:52.486Z,31.90
2018-09-21T09:58:21.052Z,32.33
2018-09-21T10:00:51.715Z,32.57
2018-09-21T10:03:21.797Z,33.19
2018-09-21T10:05:50.375Z,32.91
2018-09-21T10:08:19.056Z,32.54
2018-09-21T10:10:47.652Z,33.12
2018-09-21T10:13:16.639Z,33.53
2018-09-21T10:15:45.336Z,33.58
2018-09-21T10:18:13.944Z,33.87
2018-09-21T10:20:42.609Z,34.39
2018-09-21T10:23:11.656Z,33.85
2018-09-21T10:25:40.293Z,34.03
2018-09-21T10:28:09.065Z,34.13
2018-09-21T10:30:37.951Z,33.86
2018-09-21T10:33:06.643Z,33.91
2018-09-21T10:35:35.415Z,33.58
2018-09-21T10:38:04.023Z,34.46
2018-09-21T10:40:32.719Z,33.87
2018-09-21T10:43:01.389Z,33.94
2018-09-21T10:45:30.032Z,33.00
2018-09-21T10:47:59.270Z,32.35
2018-09-21T10:50:28.317Z,32.39
2018-09-21T10:52:57.327Z,32.47
2018-09-21T10:55:25.932Z,32.33
2018-09-21T10:57:54.511Z,32.39
2018-09-21T11:00:23.470Z,32.83
2018-09-21T11:02:52.091Z,32.77
2018-09-21T11:05:21.124Z,32.97
2018-09-21T11:07:49.844Z,33.07
2018-09-21T11:10:18.508Z,33.09
2018-09-21T11:12:47.084Z,33.48
2018-09-21T11:15:15.776Z,33.98
2018-09-21T11:17:44.364Z,33.93
2018-09-21T11:20:13.397Z,33.71
2018-09-21T11:22:42.100Z,34.09
2018-09-21T11:25:10.688Z,33.60
2018-09-21T11:27:39.260Z,34.06
2018-09-21T11:30:07.902Z,33.69
2018-09-21T11:32:36.493Z,34.53
2018-09-21T11:35:05.092Z,34.14
2018-09-21T11:37:33.813Z,34.84
2018-09-21T11:40:02.392Z,34.16
2018-09-21T11:42:30.959Z,34.41
2018-09-21T11:44:59.556Z,34.79
2018-09-21T11:47:28.715Z,34.81
2018-09-21T11:49:57.192Z,34.77
2018-09-21T11:52:25.851Z,34.83
2018-09-21T11:54:54.435Z,34.60
2018-09-21T11:57:23.012Z,34.40
2018-09-21T11:59:51.728Z,34.63
2018-09-21T12:02:20.308Z,34.01
2018-09-21T12:04:48.936Z,34.38
2018-09-21T12:07:17.932Z,34.55
2018-09-21T12:09:46.521Z,35.08
2018-09-21T12:12:15.110Z,34.84
2018-09-21T12:14:44.131Z,34.30
2018-09-21T12:17:13.085Z,33.88
2018-09-21T12:19:41.712Z,33.59
2018-09-21T12:22:10.325Z,32.69
2018-09-21T12:24:38.911Z,32.98
2018-09-21T12:27:07.500Z,32.64
2018-09-21T12:29:36.518Z,33.04
2018-09-21T12:32:05.205Z,33.53
2018-09-21T12:34:33.775Z,33.61
2018-09-21T12:37:02.409Z,33.45
2018-09-21T12:39:30.988Z,33.91
2018-09-21T12:41:59.599Z,34.24
2018-09-21T12:44:28.535Z,33.44
2018-09-21T12:46:57.131Z,34.20
2018-09-21T12:49:25.703Z,34.70
2018-09-21T12:51:54.440Z,34.83
2018-09-21T12:54:23.045Z,35.41
2018-09-21T12:56:51.625Z,35.62
2018-09-21T12:59:20.734Z,35.78
2018-09-21T13:01:49.291Z,35.77
2018-09-21T13:04:17.870Z,35.30
2018-09-21T13:06:46.588Z,35.53
2018-09-21T13:09:15.209Z,34.99
2018-09-21T13:11:43.793Z,34.96
2018-09-21T13:14:12.485Z,35.31
2018-09-21T13:16:41.113Z,34.83
2018-09-21T13:19:09.707Z,34.10
2018-09-21T13:21:38.425Z,34.81
2018-09-21T13:24:07.076Z,34.36
2018-09-21T13:26:35.700Z,34.63
2018-09-21T13:29:04.323Z,34.52
2018-09-21T13:31:32.903Z,34.15
2018-09-21T13:34:01.483Z,34.57
2018-09-21T13:36:30.407Z,34.30
2018-09-21T13:38:59.701Z,34.81
2018-09-21T13:41:28.303Z,35.37
2018-09-21T13:43:56.915Z,34.81
2018-09-21T13:46:25.485Z,35.04
2018-09-21T13:48:54.100Z,35.08
2018-09-21T13:51:23.075Z,34.87
2018-09-21T13:53:51.737Z,34.90
2018-09-21T13:56:20.307Z,35.00
2018-09-21T13:58:48.964Z,34.34
2018-09-21T14:01:17.556Z,34.60
2018-09-21T14:03:46.164Z,34.69
2018-09-21T14:06:14.887Z,34.27
2018-09-21T14:08:43.451Z,34.11
2018-09-21T14:11:12.051Z,34.58
2018-09-21T14:13:40.749Z,33.83
2018-09-21T14:16:09.340Z,31.95
2018-09-21T14:18:37.976Z,32.43
2018-09-21T14:21:06.831Z,31.67
2018-09-21T14:23:35.540Z,31.15
2018-09-21T14:26:04.125Z,29.84
2018-09-21T14:28:32.884Z,30.34
2018-09-21T14:31:01.496Z,28.79
2018-09-21T14:33:30.104Z,28.75
2018-09-21T14:35:59.474Z,28.17
2018-09-21T14:38:28.089Z,27.98
2018-09-21T14:40:56.680Z,28.34
2018-09-21T14:43:25.705Z,29.00
2018-09-21T14:45:54.301Z,28.36
2018-09-21T14:48:22.904Z,29.21
2018-09-21T14:50:51.548Z,29.44
2018-09-21T14:53:20.150Z,29.26
2018-09-21T14:55:48.756Z,29.58
2018-09-21T14:58:17.371Z,28.67
2018-09-21T15:00:45.956Z,29.32
2018-09-21T15:03:14.548Z,28.99
2018-09-21T15:05:43.226Z,28.56
2018-09-21T15:08:12.293Z,28.42
2018-09-21T15:10:40.908Z,28.21
2018-09-21T15:13:09.636Z,28.26
2018-09-21T15:15:38.344Z,28.17
2018-09-21T15:18:06.925Z,28.55
2018-09-21T15:20:35.992Z,32.72
2018-09-21T15:23:04.592Z,37.77
2018-09-21T15:25:33.192Z,40.59
2018-09-21T15:28:01.799Z,42.45
2018-09-21T15:30:30.375Z,44.00
2018-09-21T15:32:58.943Z,45.27
2018-09-21T15:35:27.657Z,45.55
2018-09-21T15:37:56.567Z,45.19
2018-09-21T15:40:25.652Z,46.15
2018-09-21T15:42:54.302Z,49.19
2018-09-21T15:45:22.934Z,48.95
2018-09-21T15:47:51.597Z,48.91
2018-09-21T15:50:20.333Z,49.23
2018-09-21T15:52:49.872Z,50.16
2018-09-21T15:55:18.445Z,51.20
2018-09-21T15:57:47.055Z,50.26
2018-09-21T16:00:16.475Z,50.17
2018-09-21T16:02:45.056Z,50.70
2018-09-21T16:05:13.988Z,50.79
2018-09-21T16:07:42.705Z,51.03
2018-09-21T16:10:11.748Z,51.34
2018-09-21T16:12:40.439Z,51.30
2018-09-21T16:15:09.632Z,51.11
2018-09-21T16:17:38.482Z,51.59
2018-09-21T16:20:07.447Z,51.72
2018-09-21T16:22:36.020Z,51.65
2018-09-21T16:25:05.849Z,53.09
2018-09-21T16:27:34.940Z,53.24
2018-09-21T16:30:03.535Z,53.19
2018-09-21T16:32:34.134Z,52.17
2018-09-21T16:35:02.779Z,50.32
2018-09-21T16:37:31.923Z,49.96
2018-09-21T16:40:00.522Z,50.55
2018-09-21T16:42:30.793Z,50.29
2018-09-21T16:44:59.431Z,49.23
2018-09-21T16:47:27.996Z,48.01
2018-09-21T16:49:56.714Z,47.80
2018-09-21T16:52:25.878Z,47.46
2018-09-21T16:54:54.417Z,47.01
2018-09-21T16:57:23.143Z,46.45
2018-09-21T16:59:52.277Z,46.17
2018-09-21T17:02:20.860Z,46.33
2018-09-21T17:04:49.486Z,46.03
2018-09-21T17:07:18.649Z,46.43
2018-09-21T17:09:48.980Z,46.60
2018-09-21T17:12:19.279Z,46.59
2018-09-21T17:14:47.872Z,46.17
2018-09-21T17:17:16.512Z,47.03
2018-09-21T17:19:45.476Z,47.12
2018-09-21T17:22:14.060Z,46.95
2018-09-21T17:24:42.752Z,46.97
2018-09-21T17:27:12.172Z,47.51
2018-09-21T17:29:40.775Z,47.75
2018-09-21T17:32:09.537Z,47.73
2018-09-21T17:34:38.091Z,47.73
2018-09-21T17:37:07.102Z,48.15
2018-09-21T17:39:35.711Z,48.18
2018-09-21T17:42:04.307Z,48.38
2018-09-21T17:44:32.937Z,48.36
2018-09-21T17:47:01.678Z,48.60
2018-09-21T17:49:30.292Z,48.67
2018-09-21T17:51:59.467Z,49.21
2018-09-21T17:54:28.065Z,49.00
2018-09-21T17:56:57.436Z,49.19
2018-09-21T17:59:26.039Z,48.97
2018-09-21T18:01:54.684Z,48.76
2018-09-21T18:04:23.252Z,48.66
2018-09-21T18:06:51.948Z,48.94
2018-09-21T18:09:20.549Z,48.99
2018-09-21T18:11:49.128Z,48.85
2018-09-21T18:14:17.707Z,48.83
2018-09-21T18:16:46.391Z,48.35
2018-09-21T18:19:15.062Z,48.31
2018-09-21T18:21:43.676Z,48.25
2018-09-21T18:24:12.275Z,48.03
2018-09-21T18:26:40.855Z,47.91
2018-09-21T18:29:09.436Z,48.06
2018-09-21T18:31:38.275Z,47.77
2018-09-21T18:34:06.952Z,47.47
2018-09-21T18:36:35.528Z,47.57
2018-09-21T18:39:05.768Z,47.80
2018-09-21T18:41:34.357Z,47.55
2018-09-21T18:44:02.980Z,47.28
2018-09-21T18:46:31.695Z,47.38
2018-09-21T18:49:00.419Z,47.11
2018-09-21T18:51:29.008Z,46.95
2018-09-21T18:53:57.720Z,47.13
2018-09-21T18:56:26.300Z,46.96
2018-09-21T18:58:54.976Z,47.03
2018-09-21T19:01:23.680Z,47.69
2018-09-21T19:03:52.333Z,47.81
2018-09-21T19:06:20.891Z,47.70
2018-09-21T19:08:49.614Z,47.88
2018-09-21T19:11:18.216Z,47.89
2018-09-21T19:13:46.810Z,47.70
2018-09-21T19:16:15.743Z,48.06
2018-09-21T19:18:44.416Z,47.76
2018-09-21T19:21:13.031Z,48.17
2018-09-21T19:23:41.668Z,48.44
2018-09-21T19:26:10.348Z,48.53
2018-09-21T19:28:38.932Z,48.56
2018-09-21T19:31:07.589Z,48.74
2018-09-21T19:33:36.171Z,48.57
2018-09-21T19:36:04.765Z,48.46
2018-09-21T19:38:33.440Z,48.47
2018-09-21T19:41:02.023Z,48.47
2018-09-21T19:43:30.612Z,48.27
2018-09-21T19:45:59.213Z,48.46
2018-09-21T19:48:27.776Z,48.17
2018-09-21T19:50:56.367Z,48.25
2018-09-21T19:53:25.072Z,47.92
2018-09-21T19:55:53.633Z,48.00
2018-09-21T19:58:22.247Z,47.72
2018-09-21T20:00:50.932Z,47.39
2018-09-21T20:03:19.576Z,47.18
2018-09-21T20:05:48.208Z,46.88
2018-09-21T20:08:16.912Z,46.86
2018-09-21T20:10:45.492Z,46.83
2018-09-21T20:13:14.094Z,46.61
2018-09-21T20:15:42.714Z,46.12
2018-09-21T20:18:11.290Z,46.26
2018-09-21T20:20:39.855Z,46.19
2018-09-21T20:23:08.556Z,46.05
2018-09-21T20:25:37.193Z,45.34
2018-09-21T20:28:05.763Z,46.02
2018-09-21T20:30:39.858Z,45.83
2018-09-21T20:33:13.752Z,45.82
2018-09-21T20:35:42.487Z,45.79
2018-09-21T20:38:11.068Z,45.69
2018-09-21T20:40:39.688Z,45.32
2018-09-21T20:43:08.359Z,45.38
2018-09-21T20:45:36.950Z,45.64
2018-09-21T20:48:05.545Z,45.68
2018-09-21T20:50:34.643Z,45.79
2018-09-21T20:53:03.675Z,45.43
2018-09-21T20:55:32.284Z,45.70
2018-09-21T20:58:00.956Z,45.44
2018-09-21T21:00:29.560Z,45.60
2018-09-21T21:02:58.153Z,45.68
2018-09-21T21:05:27.081Z,45.61
2018-09-21T21:07:55.986Z,45.66
2018-09-21T21:10:24.677Z,45.79
2018-09-21T21:12:53.295Z,45.48
2018-09-21T21:15:21.896Z,45.46
2018-09-21T21:17:50.496Z,45.53
2018-09-21T21:20:19.270Z,45.31
2018-09-21T21:22:47.874Z,45.42
2018-09-21T21:25:16.804Z,45.15
2018-09-21T21:27:45.468Z,45.03
2018-09-21T21:30:14.068Z,44.98
2018-09-21T21:32:43.277Z,44.87
2018-09-21T21:35:11.908Z,44.72
2018-09-21T21:37:40.509Z,44.71
2018-09-21T21:40:09.334Z,44.81
2018-09-21T21:42:38.056Z,44.95
2018-09-21T21:45:06.668Z,44.62
2018-09-21T21:47:35.252Z,44.69
2018-09-21T21:50:03.881Z,44.91
2018-09-21T21:52:32.455Z,44.94
2018-09-21T21:55:01.044Z,44.64
2018-09-21T21:57:29.805Z,44.70
2018-09-21T21:59:58.444Z,44.98
2018-09-21T22:02:27.090Z,45.13
2018-09-21T22:04:56.252Z,44.92
2018-09-21T22:07:24.912Z,44.93
2018-09-21T22:09:53.494Z,45.04
2018-09-21T22:12:27.283Z,45.17
2018-09-21T22:14:55.864Z,45.38
2018-09-21T22:17:24.444Z,45.23
2018-09-21T22:19:53.492Z,45.15
2018-09-21T22:22:22.071Z,44.90
2018-09-21T22:24:50.776Z,45.06
2018-09-21T22:27:19.785Z,44.91
2018-09-21T22:29:48.392Z,44.93
2018-09-21T22:32:17.515Z,44.82
2018-09-21T22:34:46.600Z,44.50
2018-09-21T22:37:15.585Z,44.19
2018-09-21T22:39:44.189Z,44.36
2018-09-21T22:42:12.908Z,44.49
2018-09-21T22:44:42.568Z,44.34
2018-09-21T22:47:11.140Z,44.76
2018-09-21T22:49:39.739Z,44.66
2018-09-21T22:52:09.285Z,44.50
2018-09-21T22:54:37.872Z,44.83
2018-09-21T22:57:06.980Z,44.73
2018-09-21T22:59:35.556Z,44.44
2018-09-21T23:02:04.667Z,44.46
2018-09-21T23:04:33.495Z,44.24
2018-09-21T23:07:02.872Z,44.65
2018-09-21T23:09:31.442Z,44.74
2018-09-21T23:12:00.508Z,44.60
2018-09-21T23:14:29.104Z,45.18
2018-09-21T23:16:57.692Z,44.96
2018-09-21T23:19:26.308Z,45.01
2018-09-21T23:21:54.914Z,44.82
2018-09-21T23:24:23.917Z,44.83
2018-09-21T23:26:52.543Z,45.06
2018-09-21T23:29:21.247Z,44.88
2018-09-21T23:31:49.872Z,44.70
2018-09-21T23:34:18.588Z,44.48
2018-09-21T23:36:47.160Z,44.51
2018-09-21T23:39:15.767Z,44.48
2018-09-21T23:41:44.396Z,44.23
2018-09-21T23:44:12.956Z,44.29
2018-09-21T23:46:41.540Z,44.51
2018-09-21T23:49:10.244Z,44.08
2018-09-21T23:51:39.353Z,44.61
2018-09-21T23:54:08.388Z,44.63
2018-09-21T23:56:37.087Z,44.42
2018-09-21T23:59:05.692Z,43.98
